createdAt,value
2022-08-18T00:01:16.814Z,100953.69
2022-08-18T00:06:22.791Z,100952.06
2022-08-18T00:11:25.472Z,100890.50
2022-08-18T00:16:28.208Z,100969.78
2022-08-18T00:21:32.161Z,100982.19
2022-08-18T00:26:36.993Z,100980.69
2022-08-18T00:31:39.814Z,100955.22
2022-08-18T00:36:43.940Z,100937.00
2022-08-18T00:41:46.800Z,100942.84
2022-08-18T00:46:49.869Z,101003.88
2022-08-18T00:51:54.279Z,100989.31
2022-08-18T00:57:00.288Z,101009.69
2022-08-18T01:02:07.981Z,100928.97
2022-08-18T01:07:20.338Z,100985.28
2022-08-18T01:12:45.051Z,100997.09
2022-08-18T01:18:03.600Z,100973.91
2022-08-18T01:23:13.941Z,100954.00
2022-08-18T01:28:20.628Z,100940.72
2022-08-18T01:33:30.198Z,100929.94
2022-08-18T01:38:34.437Z,100921.00
2022-08-18T01:43:39.680Z,100897.41
2022-08-18T01:48:43.126Z,100954.69
2022-08-18T01:53:48.557Z,100969.47
2022-08-18T01:58:51.255Z,100981.72
2022-08-18T02:04:23.272Z,100877.97
2022-08-18T02:09:24.894Z,100982.34
2022-08-18T02:14:31.159Z,100980.16
2022-08-18T02:19:39.063Z,100930.63
2022-08-18T02:24:43.951Z,100988.59
2022-08-18T02:29:46.733Z,100943.13
2022-08-18T02:34:49.801Z,100993.13
2022-08-18T02:39:55.453Z,101003.69
2022-08-18T02:44:59.413Z,100995.25
2022-08-18T02:50:02.093Z,100991.25
2022-08-18T02:55:07.576Z,100993.63
2022-08-18T03:00:12.795Z,100979.41
2022-08-18T03:05:16.409Z,100920.69
2022-08-18T03:10:33.200Z,100936.38
2022-08-18T03:15:39.392Z,100914.56
2022-08-18T03:20:44.155Z,100969.06
2022-08-18T03:25:51.493Z,100927.97
2022-08-18T03:30:54.546Z,100953.66
2022-08-18T03:36:04.273Z,100952.25
2022-08-18T03:41:08.861Z,100924.69
2022-08-18T03:46:14.580Z,100943.06
2022-08-18T03:51:20.056Z,100956.16
2022-08-18T03:56:26.709Z,100960.00
2022-08-18T04:01:32.740Z,100965.75
2022-08-18T04:06:39.224Z,100969.28
2022-08-18T04:11:44.815Z,100964.88
2022-08-18T04:16:49.168Z,100983.06
2022-08-18T04:21:53.883Z,100984.88
2022-08-18T04:26:59.492Z,100970.06
2022-08-18T04:32:03.938Z,100960.91
2022-08-18T04:37:08.822Z,100973.66
2022-08-18T04:42:12.902Z,100981.94
2022-08-18T04:47:15.652Z,100965.97
2022-08-18T04:52:40.576Z,100956.16
2022-08-18T04:57:45.562Z,100977.91
2022-08-18T05:02:49.339Z,100887.56
2022-08-18T05:07:52.143Z,100980.41
2022-08-18T05:12:58.820Z,100987.34
2022-08-18T05:18:04.586Z,100984.97
2022-08-18T05:23:09.857Z,100985.63
2022-08-18T05:28:14.438Z,100956.06
2022-08-18T05:33:17.637Z,100988.75
2022-08-18T05:38:34.934Z,100948.09
2022-08-18T05:43:56.655Z,101019.88
2022-08-18T05:48:59.385Z,101016.47
2022-08-18T05:54:21.324Z,100988.72
2022-08-18T05:59:32.405Z,101030.50
2022-08-18T06:04:45.266Z,101038.03
2022-08-18T06:09:51.580Z,101041.75
2022-08-18T06:15:05.845Z,101032.25
2022-08-18T06:20:21.083Z,101021.84
2022-08-18T06:25:31.473Z,101042.47
2022-08-18T06:30:57.059Z,100982.09
2022-08-18T06:36:05.147Z,101058.31
2022-08-18T06:41:40.360Z,101053.38
2022-08-18T06:46:46.593Z,101072.53
2022-08-18T06:51:49.444Z,101068.88
2022-08-18T06:56:55.521Z,101071.38
2022-08-18T07:02:07.154Z,101069.09
2022-08-18T07:07:20.510Z,101053.19
2022-08-18T07:12:32.710Z,101085.38
2022-08-18T07:17:43.486Z,101057.59
2022-08-18T07:22:55.681Z,101047.19
2022-08-18T07:28:01.809Z,101008.22
2022-08-18T07:33:16.411Z,101085.31
2022-08-18T07:38:44.273Z,101078.63
2022-08-18T07:43:57.322Z,101028.28
2022-08-18T07:49:01.956Z,101069.22
2022-08-18T07:54:37.762Z,101066.00
2022-08-18T07:59:48.787Z,101044.78
2022-08-18T08:05:07.175Z,101080.97
2022-08-18T08:10:25.325Z,101084.19
2022-08-18T08:15:42.404Z,101085.00
2022-08-18T08:20:52.645Z,101049.47
2022-08-18T08:26:04.101Z,101093.66
2022-08-18T08:36:40.108Z,101024.22
2022-08-18T08:41:49.129Z,101033.38
2022-08-18T08:46:58.858Z,100990.41
2022-08-18T08:52:12.395Z,101101.03
2022-08-18T08:57:18.672Z,101098.34
2022-08-18T09:02:47.391Z,101107.75
2022-08-18T09:08:22.619Z,101119.41
2022-08-18T09:13:48.977Z,101083.47
2022-08-18T09:19:07.459Z,101121.41
2022-08-18T09:24:23.418Z,101122.41
2022-08-18T09:29:46.776Z,101103.03
2022-08-18T09:35:01.032Z,101114.50
2022-08-18T09:41:01.210Z,101083.84
2022-08-18T09:50:37.284Z,101066.78
2022-08-18T09:51:40.114Z,101126.63
2022-08-18T09:57:19.511Z,101081.47
2022-08-18T10:03:13.721Z,101123.94
2022-08-18T10:08:55.446Z,101121.59
2022-08-18T10:14:14.452Z,101062.59
2022-08-18T10:19:39.487Z,101043.34
2022-08-18T10:25:14.159Z,101044.03
2022-08-18T10:30:56.574Z,101117.50
2022-08-18T10:36:03.133Z,101097.75
2022-08-18T10:41:10.200Z,101118.78
2022-08-18T10:46:25.077Z,101127.19
2022-08-18T10:57:15.310Z,101083.75
2022-08-18T11:02:39.960Z,101109.84
2022-08-18T11:07:53.526Z,101101.94
2022-08-18T11:13:09.835Z,101088.97
2022-08-18T11:18:30.186Z,101091.31
2022-08-18T11:23:33.545Z,101089.28
2022-08-18T11:28:45.061Z,101029.00
2022-08-18T11:33:52.461Z,101079.28
2022-08-18T11:38:56.376Z,101081.66
2022-08-18T11:44:05.689Z,101074.31
2022-08-18T11:49:24.153Z,101064.56
2022-08-18T11:54:39.162Z,101042.66
2022-08-18T12:05:17.883Z,101050.28
2022-08-18T12:10:26.422Z,100999.03
2022-08-18T12:15:44.709Z,100979.69
2022-08-18T12:20:52.913Z,101037.56
2022-08-18T12:25:55.596Z,100985.78
2022-08-18T12:30:58.274Z,101022.94
2022-08-18T12:41:25.721Z,100958.41
2022-08-18T12:46:28.871Z,101047.34
2022-08-18T12:51:34.858Z,101064.03
2022-08-18T12:56:38.559Z,101047.31
2022-08-18T13:01:42.311Z,101031.06
2022-08-18T13:07:00.378Z,101001.53
2022-08-18T13:12:08.957Z,101091.91
2022-08-18T13:17:28.929Z,101081.03
2022-08-18T13:22:37.048Z,101051.19
2022-08-18T13:27:45.208Z,101049.25
2022-08-18T13:32:59.156Z,101050.38
2022-08-18T13:38:14.336Z,101036.44
2022-08-18T13:43:34.263Z,101017.31
2022-08-18T13:48:41.466Z,100976.31
2022-08-18T13:53:58.872Z,101026.97
2022-08-18T13:59:09.162Z,101022.50
2022-08-18T14:04:21.103Z,101012.22
2022-08-18T14:09:35.978Z,100993.81
2022-08-18T14:14:44.093Z,100967.47
2022-08-18T14:20:04.697Z,100966.19
2022-08-18T14:25:26.893Z,100945.56
2022-08-18T14:30:29.600Z,100959.81
2022-08-18T14:36:03.732Z,100970.69
2022-08-18T14:41:03.248Z,100984.66
2022-08-18T14:46:08.962Z,100972.94
2022-08-18T14:51:14.776Z,100979.03
2022-08-18T14:56:22.197Z,100980.28
2022-08-18T15:01:28.043Z,100983.22
2022-08-18T15:06:45.368Z,100975.03
2022-08-18T15:12:01.922Z,100966.41
2022-08-18T15:17:11.849Z,100959.97
2022-08-18T15:22:33.967Z,100948.00
2022-08-18T15:27:42.865Z,100965.50
2022-08-18T15:32:49.890Z,100977.78
2022-08-18T15:37:55.156Z,100985.94
2022-08-18T15:43:02.313Z,100971.28
2022-08-18T15:48:06.492Z,100970.31
2022-08-18T15:53:12.764Z,100964.47
2022-08-18T15:58:22.045Z,100970.75
2022-08-18T16:03:25.663Z,100968.13
2022-08-18T16:08:28.924Z,100967.16
2022-08-18T16:13:32.915Z,100980.50
2022-08-18T16:18:36.645Z,100981.22
2022-08-18T16:23:41.021Z,100976.63
2022-08-18T16:28:50.939Z,100979.97
2022-08-18T16:33:54.724Z,100969.72
2022-08-18T16:38:58.357Z,100984.72
2022-08-18T16:44:02.765Z,100946.63
2022-08-18T16:49:08.017Z,100960.25
2022-08-18T16:54:10.904Z,100956.94
2022-08-18T16:59:32.435Z,100947.94
2022-08-18T17:04:35.184Z,100935.91
2022-08-18T17:09:37.995Z,100898.19
2022-08-18T17:14:42.195Z,100942.25
2022-08-18T17:19:46.791Z,100939.16
2022-08-18T17:24:50.598Z,100921.44
2022-08-18T17:30:01.586Z,100904.59
2022-08-18T17:35:09.127Z,100875.38
2022-08-18T17:40:17.804Z,100906.69
2022-08-18T17:45:24.557Z,100936.44
2022-08-18T17:50:51.584Z,100942.72
2022-08-18T17:56:00.822Z,100946.56
2022-08-18T18:01:05.232Z,100948.19
2022-08-18T18:06:12.228Z,100951.22
2022-08-18T18:11:15.302Z,100925.25
2022-08-18T18:16:27.283Z,100934.97
2022-08-18T18:22:00.192Z,100958.69
2022-08-18T18:27:27.174Z,100910.66
2022-08-18T18:32:34.467Z,100903.91
2022-08-18T18:37:47.385Z,100867.97
2022-08-18T18:42:50.548Z,100848.75
2022-08-18T18:48:04.699Z,100875.50
2022-08-18T18:53:21.322Z,100941.00
2022-08-18T18:58:32.851Z,100946.31
2022-08-18T19:03:43.592Z,100949.19
2022-08-18T19:08:57.852Z,100955.44
2022-08-18T19:14:07.475Z,100946.75
2022-08-18T19:19:37.020Z,100929.53
2022-08-18T19:24:47.360Z,100947.78
2022-08-18T19:29:53.433Z,100971.31
2022-08-18T19:34:58.529Z,100953.16
2022-08-18T19:40:10.894Z,100961.38
2022-08-18T19:45:24.771Z,100939.84
2022-08-18T19:50:35.063Z,100974.16
2022-08-18T19:55:53.924Z,100939.00
2022-08-18T20:01:01.286Z,100961.97
2022-08-18T20:06:34.574Z,100969.97
2022-08-18T20:11:57.764Z,100975.19
2022-08-18T20:17:21.351Z,100952.50
2022-08-18T20:22:32.797Z,100978.47
2022-08-18T20:27:39.497Z,100974.34
2022-08-18T20:32:42.960Z,100929.25
2022-08-18T20:37:47.012Z,100943.19
2022-08-18T20:42:55.857Z,100972.31
2022-08-18T20:48:26.447Z,100967.91
2022-08-18T20:53:50.244Z,100989.72
2022-08-18T20:58:57.743Z,100978.84
2022-08-18T21:04:00.645Z,100995.16
2022-08-18T21:09:05.952Z,100999.00
2022-08-18T21:14:13.576Z,100999.56
2022-08-18T21:19:23.464Z,101009.78
2022-08-18T21:24:33.319Z,100992.25
2022-08-18T21:29:46.850Z,101017.78
2022-08-18T21:34:53.790Z,100974.00
2022-08-18T21:40:00.624Z,100997.09
2022-08-18T21:45:09.496Z,100999.41
2022-08-18T21:50:15.683Z,100999.38
2022-08-18T21:55:27.113Z,100998.28
2022-08-18T22:00:31.765Z,100985.63
2022-08-18T22:05:59.057Z,100997.53
2022-08-18T22:11:59.943Z,100997.69
2022-08-18T22:17:29.819Z,100996.50
2022-08-18T22:23:07.753Z,101007.66
2022-08-18T22:28:11.936Z,100967.03
2022-08-18T22:33:14.671Z,100958.72
2022-08-18T22:38:19.017Z,100923.56
2022-08-18T22:43:27.826Z,101006.88
2022-08-18T22:48:30.434Z,100991.44
2022-08-18T22:53:33.113Z,101012.13
2022-08-18T22:58:37.439Z,101013.88
2022-08-18T23:03:42.595Z,101007.13
2022-08-18T23:08:55.153Z,101006.97
2022-08-18T23:14:01.975Z,101015.81
2022-08-18T23:19:05.374Z,101019.53
2022-08-18T23:24:09.913Z,101021.66
2022-08-18T23:29:14.351Z,101022.69
2022-08-18T23:34:20.344Z,101017.09
2022-08-18T23:39:23.577Z,101018.25
2022-08-18T23:44:28.224Z,100950.72
2022-08-18T23:49:31.447Z,101010.47
2022-08-18T23:54:36.333Z,101024.50
2022-08-18T23:59:40.460Z,100990.81
